sensor_id;sensor_type;location;lat;lon;timestamp;P1;durP1;ratioP1;P2;durP2;ratioP2
18217;SDS011;9234;49.344;11.120;2023-08-31T00:00:09;2.78;;;2.08;;
18217;SDS011;9234;49.344;11.120;2023-08-31T00:02:39;4.65;;;2.65;;
18217;SDS011;9234;49.344;11.120;2023-08-31T00:05:08;3.13;;;2.30;;
18217;SDS011;9234;49.344;11.120;2023-08-31T00:07:37;1.95;;;1.73;;
18217;SDS011;9234;49.344;11.120;2023-08-31T00:10:05;3.85;;;2.15;;
18217;SDS011;9234;49.344;11.120;2023-08-31T00:12:38;2.60;;;2.40;;
18217;SDS011;9234;49.344;11.120;2023-08-31T00:15:09;2.45;;;2.25;;
18217;SDS011;9234;49.344;11.120;2023-08-31T00:17:37;2.97;;;2.30;;
18217;SDS011;9234;49.344;11.120;2023-08-31T00:20:06;2.85;;;2.40;;
18217;SDS011;9234;49.344;11.120;2023-08-31T00:22:38;5.78;;;2.42;;
18217;SDS011;9234;49.344;11.120;2023-08-31T00:25:06;2.67;;;2.28;;
18217;SDS011;9234;49.344;11.120;2023-08-31T00:27:35;2.40;;;2.20;;
18217;SDS011;9234;49.344;11.120;2023-08-31T00:30:04;2.72;;;2.53;;
18217;SDS011;9234;49.344;11.120;2023-08-31T00:32:35;2.72;;;2.03;;
18217;SDS011;9234;49.344;11.120;2023-08-31T00:35:05;2.67;;;2.47;;
18217;SDS011;9234;49.344;11.120;2023-08-31T00:37:34;3.08;;;2.17;;
18217;SDS011;9234;49.344;11.120;2023-08-31T00:40:03;1.88;;;1.70;;
18217;SDS011;9234;49.344;11.120;2023-08-31T00:42:35;2.47;;;2.13;;
18217;SDS011;9234;49.344;11.120;2023-08-31T00:45:04;3.00;;;2.22;;
18217;SDS011;9234;49.344;11.120;2023-08-31T00:47:33;2.65;;;2.45;;
18217;SDS011;9234;49.344;11.120;2023-08-31T00:50:03;3.80;;;2.40;;
18217;SDS011;9234;49.344;11.120;2023-08-31T00:52:35;3.90;;;2.17;;
18217;SDS011;9234;49.344;11.120;2023-08-31T00:55:04;2.17;;;1.98;;
18217;SDS011;9234;49.344;11.120;2023-08-31T00:57:34;3.30;;;2.30;;
18217;SDS011;9234;49.344;11.120;2023-08-31T01:00:03;2.92;;;2.72;;
18217;SDS011;9234;49.344;11.120;2023-08-31T01:02:37;3.40;;;2.40;;
18217;SDS011;9234;49.344;11.120;2023-08-31T01:05:22;3.50;;;2.47;;
18217;SDS011;9234;49.344;11.120;2023-08-31T01:08:03;5.55;;;2.95;;
18217;SDS011;9234;49.344;11.120;2023-08-31T01:10:50;2.65;;;2.45;;
18217;SDS011;9234;49.344;11.120;2023-08-31T01:13:31;2.42;;;2.20;;
18217;SDS011;9234;49.344;11.120;2023-08-31T01:16:03;3.28;;;2.95;;
18217;SDS011;9234;49.344;11.120;2023-08-31T01:18:37;4.03;;;2.20;;
18217;SDS011;9234;49.344;11.120;2023-08-31T01:21:09;3.90;;;2.60;;
18217;SDS011;9234;49.344;11.120;2023-08-31T01:23:51;2.67;;;2.28;;
18217;SDS011;9234;49.344;11.120;2023-08-31T01:26:21;2.58;;;2.38;;
18217;SDS011;9234;49.344;11.120;2023-08-31T01:28:50;2.60;;;2.40;;
18217;SDS011;9234;49.344;11.120;2023-08-31T01:31:20;6.57;;;2.83;;
18217;SDS011;9234;49.344;11.120;2023-08-31T01:33:48;2.58;;;2.38;;
18217;SDS011;9234;49.344;11.120;2023-08-31T01:36:19;2.85;;;2.60;;
18217;SDS011;9234;49.344;11.120;2023-08-31T01:38:58;2.85;;;2.47;;
18217;SDS011;9234;49.344;11.120;2023-08-31T01:41:34;4.25;;;2.60;;
18217;SDS011;9234;49.344;11.120;2023-08-31T01:44:05;4.75;;;2.45;;
18217;SDS011;9234;49.344;11.120;2023-08-31T01:46:38;6.38;;;2.55;;
18217;SDS011;9234;49.344;11.120;2023-08-31T01:49:07;3.50;;;2.50;;
18217;SDS011;9234;49.344;11.120;2023-08-31T01:51:37;5.45;;;2.70;;
18217;SDS011;9234;49.344;11.120;2023-08-31T01:54:07;3.25;;;2.58;;
18217;SDS011;9234;49.344;11.120;2023-08-31T01:56:35;3.17;;;2.80;;
18217;SDS011;9234;49.344;11.120;2023-08-31T01:59:03;2.80;;;2.38;;
18217;SDS011;9234;49.344;11.120;2023-08-31T02:01:32;4.18;;;2.53;;
18217;SDS011;9234;49.344;11.120;2023-08-31T02:04:00;3.08;;;2.75;;
18217;SDS011;9234;49.344;11.120;2023-08-31T02:06:28;2.60;;;2.38;;
18217;SDS011;9234;49.344;11.120;2023-08-31T02:08:57;3.15;;;2.50;;
18217;SDS011;9234;49.344;11.120;2023-08-31T02:11:26;3.72;;;2.70;;
18217;SDS011;9234;49.344;11.120;2023-08-31T02:13:55;2.60;;;2.40;;
18217;SDS011;9234;49.344;11.120;2023-08-31T02:16:23;4.88;;;2.83;;
18217;SDS011;9234;49.344;11.120;2023-08-31T02:18:51;2.65;;;2.38;;
18217;SDS011;9234;49.344;11.120;2023-08-31T02:21:19;5.28;;;2.75;;
18217;SDS011;9234;49.344;11.120;2023-08-31T02:23:52;2.58;;;2.38;;
18217;SDS011;9234;49.344;11.120;2023-08-31T02:26:20;2.80;;;2.40;;
18217;SDS011;9234;49.344;11.120;2023-08-31T02:28:50;3.25;;;2.30;;
18217;SDS011;9234;49.344;11.120;2023-08-31T02:31:19;2.92;;;2.63;;
18217;SDS011;9234;49.344;11.120;2023-08-31T02:33:47;2.88;;;2.30;;
18217;SDS011;9234;49.344;11.120;2023-08-31T02:36:16;2.97;;;2.58;;
18217;SDS011;9234;49.344;11.120;2023-08-31T02:38:46;3.10;;;2.35;;
18217;SDS011;9234;49.344;11.120;2023-08-31T02:41:16;3.88;;;2.25;;
18217;SDS011;9234;49.344;11.120;2023-08-31T02:43:44;5.60;;;2.30;;
18217;SDS011;9234;49.344;11.120;2023-08-31T02:46:14;3.15;;;2.85;;
18217;SDS011;9234;49.344;11.120;2023-08-31T02:48:43;2.45;;;2.25;;
18217;SDS011;9234;49.344;11.120;2023-08-31T02:51:14;3.15;;;2.78;;
18217;SDS011;9234;49.344;11.120;2023-08-31T02:53:42;3.17;;;2.88;;
18217;SDS011;9234;49.344;11.120;2023-08-31T02:56:10;2.92;;;2.63;;
18217;SDS011;9234;49.344;11.120;2023-08-31T02:58:39;5.32;;;2.40;;
18217;SDS011;9234;49.344;11.120;2023-08-31T03:01:07;3.20;;;2.35;;
18217;SDS011;9234;49.344;11.120;2023-08-31T03:03:42;4.15;;;2.83;;
18217;SDS011;9234;49.344;11.120;2023-08-31T03:06:12;5.32;;;3.00;;
18217;SDS011;9234;49.344;11.120;2023-08-31T03:08:41;3.17;;;2.63;;
18217;SDS011;9234;49.344;11.120;2023-08-31T03:11:09;2.60;;;2.40;;
18217;SDS011;9234;49.344;11.120;2023-08-31T03:13:40;2.45;;;2.25;;
18217;SDS011;9234;49.344;11.120;2023-08-31T03:16:10;4.43;;;2.60;;
18217;SDS011;9234;49.344;11.120;2023-08-31T03:18:41;3.50;;;2.92;;
18217;SDS011;9234;49.344;11.120;2023-08-31T03:21:11;2.67;;;2.42;;
18217;SDS011;9234;49.344;11.120;2023-08-31T03:23:39;5.32;;;2.60;;
18217;SDS011;9234;49.344;11.120;2023-08-31T03:26:08;3.25;;;2.42;;
18217;SDS011;9234;49.344;11.120;2023-08-31T03:28:36;2.40;;;2.20;;
18217;SDS011;9234;49.344;11.120;2023-08-31T03:31:07;2.67;;;2.25;;
18217;SDS011;9234;49.344;11.120;2023-08-31T03:33:35;3.97;;;2.33;;
18217;SDS011;9234;49.344;11.120;2023-08-31T03:36:05;2.22;;;1.85;;
18217;SDS011;9234;49.344;11.120;2023-08-31T03:38:34;2.83;;;2.63;;
18217;SDS011;9234;49.344;11.120;2023-08-31T03:41:04;5.32;;;2.72;;
18217;SDS011;9234;49.344;11.120;2023-08-31T03:43:32;2.83;;;2.58;;
18217;SDS011;9234;49.344;11.120;2023-08-31T03:46:01;4.13;;;2.78;;
18217;SDS011;9234;49.344;11.120;2023-08-31T03:48:30;2.80;;;2.60;;
18217;SDS011;9234;49.344;11.120;2023-08-31T03:50:58;4.22;;;3.03;;
18217;SDS011;9234;49.344;11.120;2023-08-31T03:53:27;5.15;;;3.03;;
18217;SDS011;9234;49.344;11.120;2023-08-31T03:55:58;4.50;;;2.70;;
18217;SDS011;9234;49.344;11.120;2023-08-31T03:58:29;3.20;;;2.90;;
18217;SDS011;9234;49.344;11.120;2023-08-31T04:00:57;6.43;;;3.10;;
18217;SDS011;9234;49.344;11.120;2023-08-31T04:03:25;3.45;;;3.10;;
18217;SDS011;9234;49.344;11.120;2023-08-31T04:05:54;4.07;;;3.45;;
18217;SDS011;9234;49.344;11.120;2023-08-31T04:08:22;4.75;;;3.50;;
18217;SDS011;9234;49.344;11.120;2023-08-31T04:10:52;3.83;;;3.50;;
18217;SDS011;9234;49.344;11.120;2023-08-31T04:13:20;3.70;;;3.40;;
18217;SDS011;9234;49.344;11.120;2023-08-31T04:15:49;3.50;;;3.15;;
18217;SDS011;9234;49.344;11.120;2023-08-31T04:18:17;4.45;;;3.83;;
18217;SDS011;9234;49.344;11.120;2023-08-31T04:20:48;4.88;;;3.97;;
18217;SDS011;9234;49.344;11.120;2023-08-31T04:23:18;4.97;;;3.88;;
18217;SDS011;9234;49.344;11.120;2023-08-31T04:25:47;7.90;;;3.97;;
18217;SDS011;9234;49.344;11.120;2023-08-31T04:28:19;6.75;;;3.85;;
18217;SDS011;9234;49.344;11.120;2023-08-31T04:30:47;5.45;;;4.30;;
18217;SDS011;9234;49.344;11.120;2023-08-31T04:33:16;4.63;;;4.22;;
18217;SDS011;9234;49.344;11.120;2023-08-31T04:35:45;4.63;;;4.20;;
18217;SDS011;9234;49.344;11.120;2023-08-31T04:38:13;8.82;;;5.30;;
18217;SDS011;9234;49.344;11.120;2023-08-31T04:40:42;5.65;;;4.85;;
18217;SDS011;9234;49.344;11.120;2023-08-31T04:43:10;9.82;;;4.50;;
18217;SDS011;9234;49.344;11.120;2023-08-31T04:45:41;6.03;;;4.53;;
18217;SDS011;9234;49.344;11.120;2023-08-31T04:48:09;4.85;;;4.25;;
18217;SDS011;9234;49.344;11.120;2023-08-31T04:50:37;5.65;;;4.70;;
18217;SDS011;9234;49.344;11.120;2023-08-31T04:53:05;6.18;;;4.97;;
18217;SDS011;9234;49.344;11.120;2023-08-31T04:55:34;4.90;;;4.40;;
18217;SDS011;9234;49.344;11.120;2023-08-31T04:58:02;5.68;;;4.60;;
18217;SDS011;9234;49.344;11.120;2023-08-31T05:00:31;13.63;;;4.88;;
18217;SDS011;9234;49.344;11.120;2023-08-31T05:03:01;5.10;;;4.38;;
18217;SDS011;9234;49.344;11.120;2023-08-31T05:05:30;4.75;;;4.30;;
18217;SDS011;9234;49.344;11.120;2023-08-31T05:08:01;6.68;;;4.47;;
18217;SDS011;9234;49.344;11.120;2023-08-31T05:10:29;6.03;;;4.38;;
18217;SDS011;9234;49.344;11.120;2023-08-31T05:12:58;7.97;;;4.60;;
18217;SDS011;9234;49.344;11.120;2023-08-31T05:15:26;5.07;;;4.40;;
18217;SDS011;9234;49.344;11.120;2023-08-31T05:17:55;5.75;;;5.18;;
18217;SDS011;9234;49.344;11.120;2023-08-31T05:20:25;5.15;;;4.50;;
18217;SDS011;9234;49.344;11.120;2023-08-31T05:22:53;5.97;;;4.82;;
18217;SDS011;9234;49.344;11.120;2023-08-31T05:25:22;6.88;;;5.30;;
18217;SDS011;9234;49.344;11.120;2023-08-31T05:27:54;6.97;;;5.50;;
18217;SDS011;9234;49.344;11.120;2023-08-31T05:30:22;9.05;;;5.30;;
18217;SDS011;9234;49.344;11.120;2023-08-31T05:32:50;7.38;;;6.00;;
18217;SDS011;9234;49.344;11.120;2023-08-31T05:35:18;5.70;;;5.20;;
18217;SDS011;9234;49.344;11.120;2023-08-31T05:37:48;5.55;;;5.05;;
18217;SDS011;9234;49.344;11.120;2023-08-31T05:40:16;5.15;;;4.65;;
18217;SDS011;9234;49.344;11.120;2023-08-31T05:42:45;7.15;;;5.25;;
18217;SDS011;9234;49.344;11.120;2023-08-31T05:45:12;5.75;;;5.25;;
18217;SDS011;9234;49.344;11.120;2023-08-31T05:47:41;7.35;;;5.32;;
18217;SDS011;9234;49.344;11.120;2023-08-31T05:50:09;9.68;;;5.95;;
18217;SDS011;9234;49.344;11.120;2023-08-31T05:52:38;6.75;;;6.15;;
18217;SDS011;9234;49.344;11.120;2023-08-31T05:55:11;7.63;;;6.45;;
18217;SDS011;9234;49.344;11.120;2023-08-31T05:57:39;7.18;;;6.32;;
18217;SDS011;9234;49.344;11.120;2023-08-31T06:00:08;7.50;;;6.47;;
18217;SDS011;9234;49.344;11.120;2023-08-31T06:02:40;7.30;;;6.30;;
18217;SDS011;9234;49.344;11.120;2023-08-31T06:05:09;7.88;;;5.60;;
18217;SDS011;9234;49.344;11.120;2023-08-31T06:07:39;7.28;;;5.68;;
18217;SDS011;9234;49.344;11.120;2023-08-31T06:10:08;6.70;;;6.10;;
18217;SDS011;9234;49.344;11.120;2023-08-31T06:12:38;8.80;;;7.50;;
18217;SDS011;9234;49.344;11.120;2023-08-31T06:15:07;7.25;;;6.55;;
18217;SDS011;9234;49.344;11.120;2023-08-31T06:17:36;12.82;;;6.47;;
18217;SDS011;9234;49.344;11.120;2023-08-31T06:20:04;7.25;;;6.55;;
18217;SDS011;9234;49.344;11.120;2023-08-31T06:22:34;8.65;;;6.53;;
18217;SDS011;9234;49.344;11.120;2023-08-31T06:25:03;7.43;;;6.47;;
18217;SDS011;9234;49.344;11.120;2023-08-31T06:27:33;7.75;;;6.30;;
18217;SDS011;9234;49.344;11.120;2023-08-31T06:30:04;8.38;;;6.75;;
18217;SDS011;9234;49.344;11.120;2023-08-31T06:32:34;9.30;;;6.57;;
18217;SDS011;9234;49.344;11.120;2023-08-31T06:35:03;8.32;;;6.72;;
18217;SDS011;9234;49.344;11.120;2023-08-31T06:37:32;7.97;;;6.90;;
18217;SDS011;9234;49.344;11.120;2023-08-31T06:40:00;10.15;;;6.80;;
18217;SDS011;9234;49.344;11.120;2023-08-31T06:42:29;11.60;;;8.05;;
18217;SDS011;9234;49.344;11.120;2023-08-31T06:44:57;10.75;;;7.75;;
18217;SDS011;9234;49.344;11.120;2023-08-31T06:47:27;7.90;;;7.10;;
18217;SDS011;9234;49.344;11.120;2023-08-31T06:49:55;9.25;;;8.20;;
18217;SDS011;9234;49.344;11.120;2023-08-31T06:52:24;11.88;;;7.45;;
18217;SDS011;9234;49.344;11.120;2023-08-31T06:54:57;10.80;;;8.57;;
18217;SDS011;9234;49.344;11.120;2023-08-31T06:57:26;8.85;;;8.02;;
18217;SDS011;9234;49.344;11.120;2023-08-31T06:59:55;8.90;;;7.50;;
18217;SDS011;9234;49.344;11.120;2023-08-31T07:02:26;8.23;;;6.88;;
18217;SDS011;9234;49.344;11.120;2023-08-31T07:04:55;8.68;;;6.90;;
18217;SDS011;9234;49.344;11.120;2023-08-31T07:07:23;7.35;;;6.40;;
18217;SDS011;9234;49.344;11.120;2023-08-31T07:09:51;10.55;;;6.47;;
18217;SDS011;9234;49.344;11.120;2023-08-31T07:12:21;9.02;;;6.35;;
18217;SDS011;9234;49.344;11.120;2023-08-31T07:14:49;7.88;;;6.32;;
18217;SDS011;9234;49.344;11.120;2023-08-31T07:17:17;7.30;;;5.38;;
18217;SDS011;9234;49.344;11.120;2023-08-31T07:19:48;5.95;;;5.30;;
18217;SDS011;9234;49.344;11.120;2023-08-31T07:22:17;6.38;;;5.03;;
18217;SDS011;9234;49.344;11.120;2023-08-31T07:24:45;6.78;;;5.47;;
18217;SDS011;9234;49.344;11.120;2023-08-31T07:27:14;6.90;;;4.90;;
18217;SDS011;9234;49.344;11.120;2023-08-31T07:29:45;8.65;;;4.80;;
18217;SDS011;9234;49.344;11.120;2023-08-31T07:32:13;8.25;;;4.45;;
18217;SDS011;9234;49.344;11.120;2023-08-31T07:34:41;5.55;;;4.05;;
18217;SDS011;9234;49.344;11.120;2023-08-31T07:37:11;5.13;;;3.78;;
18217;SDS011;9234;49.344;11.120;2023-08-31T07:39:39;5.93;;;3.50;;
18217;SDS011;9234;49.344;11.120;2023-08-31T07:42:07;4.55;;;3.20;;
18217;SDS011;9234;49.344;11.120;2023-08-31T07:44:36;7.53;;;3.83;;
18217;SDS011;9234;49.344;11.120;2023-08-31T07:47:04;4.07;;;3.03;;
18217;SDS011;9234;49.344;11.120;2023-08-31T07:49:33;6.30;;;3.63;;
18217;SDS011;9234;49.344;11.120;2023-08-31T07:52:02;6.05;;;3.58;;
18217;SDS011;9234;49.344;11.120;2023-08-31T07:54:32;6.57;;;2.85;;
18217;SDS011;9234;49.344;11.120;2023-08-31T07:57:00;7.38;;;3.33;;
18217;SDS011;9234;49.344;11.120;2023-08-31T07:59:28;5.38;;;3.03;;
18217;SDS011;9234;49.344;11.120;2023-08-31T08:01:57;5.28;;;3.00;;
18217;SDS011;9234;49.344;11.120;2023-08-31T08:04:25;3.97;;;2.58;;
18217;SDS011;9234;49.344;11.120;2023-08-31T08:06:53;8.35;;;2.58;;
18217;SDS011;9234;49.344;11.120;2023-08-31T08:09:22;3.47;;;2.35;;
18217;SDS011;9234;49.344;11.120;2023-08-31T08:11:51;3.88;;;2.20;;
18217;SDS011;9234;49.344;11.120;2023-08-31T08:14:20;3.35;;;2.20;;
18217;SDS011;9234;49.344;11.120;2023-08-31T08:16:48;4.97;;;2.42;;
18217;SDS011;9234;49.344;11.120;2023-08-31T08:19:20;4.10;;;2.55;;
18217;SDS011;9234;49.344;11.120;2023-08-31T08:21:49;2.95;;;2.10;;
18217;SDS011;9234;49.344;11.120;2023-08-31T08:24:19;2.28;;;1.83;;
18217;SDS011;9234;49.344;11.120;2023-08-31T08:26:48;5.78;;;2.08;;
18217;SDS011;9234;49.344;11.120;2023-08-31T08:29:17;3.72;;;2.05;;
18217;SDS011;9234;49.344;11.120;2023-08-31T08:31:45;4.75;;;1.70;;
18217;SDS011;9234;49.344;11.120;2023-08-31T08:34:14;3.22;;;1.42;;
18217;SDS011;9234;49.344;11.120;2023-08-31T08:36:42;6.80;;;2.38;;
18217;SDS011;9234;49.344;11.120;2023-08-31T08:39:10;5.40;;;2.03;;
18217;SDS011;9234;49.344;11.120;2023-08-31T08:41:38;4.72;;;2.10;;
18217;SDS011;9234;49.344;11.120;2023-08-31T08:44:08;3.80;;;1.88;;
18217;SDS011;9234;49.344;11.120;2023-08-31T08:46:39;5.45;;;1.85;;
18217;SDS011;9234;49.344;11.120;2023-08-31T08:49:09;3.63;;;1.80;;
18217;SDS011;9234;49.344;11.120;2023-08-31T08:51:39;2.95;;;1.85;;
18217;SDS011;9234;49.344;11.120;2023-08-31T08:54:08;2.63;;;1.63;;
18217;SDS011;9234;49.344;11.120;2023-08-31T08:56:36;7.00;;;1.98;;
18217;SDS011;9234;49.344;11.120;2023-08-31T08:59:04;3.92;;;2.10;;
18217;SDS011;9234;49.344;11.120;2023-08-31T09:01:33;3.55;;;1.63;;
18217;SDS011;9234;49.344;11.120;2023-08-31T09:04:05;4.25;;;1.58;;
18217;SDS011;9234;49.344;11.120;2023-08-31T09:06:33;4.05;;;1.58;;
18217;SDS011;9234;49.344;11.120;2023-08-31T09:09:03;3.88;;;1.98;;
18217;SDS011;9234;49.344;11.120;2023-08-31T09:11:32;4.00;;;1.65;;
18217;SDS011;9234;49.344;11.120;2023-08-31T09:14:12;3.42;;;2.22;;
18217;SDS011;9234;49.344;11.120;2023-08-31T09:16:44;2.47;;;1.63;;
18217;SDS011;9234;49.344;11.120;2023-08-31T09:19:21;4.63;;;2.10;;
18217;SDS011;9234;49.344;11.120;2023-08-31T09:21:55;2.65;;;1.70;;
18217;SDS011;9234;49.344;11.120;2023-08-31T09:24:24;2.60;;;1.65;;
18217;SDS011;9234;49.344;11.120;2023-08-31T09:26:53;4.40;;;1.95;;
18217;SDS011;9234;49.344;11.120;2023-08-31T09:29:24;4.55;;;1.48;;
18217;SDS011;9234;49.344;11.120;2023-08-31T09:31:52;2.47;;;1.60;;
18217;SDS011;9234;49.344;11.120;2023-08-31T09:34:31;3.72;;;1.60;;
18217;SDS011;9234;49.344;11.120;2023-08-31T09:37:05;2.47;;;1.42;;
18217;SDS011;9234;49.344;11.120;2023-08-31T09:39:38;3.75;;;1.58;;
18217;SDS011;9234;49.344;11.120;2023-08-31T09:42:07;3.58;;;1.92;;
18217;SDS011;9234;49.344;11.120;2023-08-31T09:44:39;3.38;;;1.60;;
18217;SDS011;9234;49.344;11.120;2023-08-31T09:47:11;3.10;;;1.30;;
18217;SDS011;9234;49.344;11.120;2023-08-31T09:49:43;3.15;;;1.77;;
18217;SDS011;9234;49.344;11.120;2023-08-31T09:52:12;1.85;;;1.33;;
18217;SDS011;9234;49.344;11.120;2023-08-31T09:54:42;4.47;;;1.92;;
18217;SDS011;9234;49.344;11.120;2023-08-31T09:57:12;2.00;;;1.60;;
18217;SDS011;9234;49.344;11.120;2023-08-31T09:59:46;3.17;;;1.40;;
18217;SDS011;9234;49.344;11.120;2023-08-31T10:02:15;2.22;;;1.58;;
18217;SDS011;9234;49.344;11.120;2023-08-31T10:04:47;3.30;;;1.38;;
18217;SDS011;9234;49.344;11.120;2023-08-31T10:07:18;2.13;;;1.58;;
18217;SDS011;9234;49.344;11.120;2023-08-31T10:09:49;2.60;;;1.48;;
18217;SDS011;9234;49.344;11.120;2023-08-31T10:12:18;2.92;;;1.88;;
18217;SDS011;9234;49.344;11.120;2023-08-31T10:14:48;2.22;;;1.35;;
18217;SDS011;9234;49.344;11.120;2023-08-31T10:17:19;6.57;;;2.03;;
18217;SDS011;9234;49.344;11.120;2023-08-31T10:19:49;3.92;;;1.30;;
18217;SDS011;9234;49.344;11.120;2023-08-31T10:22:18;3.30;;;1.73;;
18217;SDS011;9234;49.344;11.120;2023-08-31T10:24:56;5.00;;;1.60;;
18217;SDS011;9234;49.344;11.120;2023-08-31T10:27:25;3.25;;;1.48;;
18217;SDS011;9234;49.344;11.120;2023-08-31T10:29:54;4.30;;;1.48;;
18217;SDS011;9234;49.344;11.120;2023-08-31T10:32:22;2.83;;;1.60;;
18217;SDS011;9234;49.344;11.120;2023-08-31T10:37:39;4.30;;;1.85;;
18217;SDS011;9234;49.344;11.120;2023-08-31T10:40:08;5.93;;;1.52;;
18217;SDS011;9234;49.344;11.120;2023-08-31T10:42:42;3.70;;;1.50;;
18217;SDS011;9234;49.344;11.120;2023-08-31T10:45:14;1.90;;;1.80;;
18217;SDS011;9234;49.344;11.120;2023-08-31T10:47:47;5.35;;;2.50;;
18217;SDS011;9234;49.344;11.120;2023-08-31T10:50:17;3.60;;;1.80;;
18217;SDS011;9234;49.344;11.120;2023-08-31T10:52:48;4.13;;;2.20;;
18217;SDS011;9234;49.344;11.120;2023-08-31T10:55:17;5.30;;;2.05;;
18217;SDS011;9234;49.344;11.120;2023-08-31T10:57:45;5.55;;;2.05;;
18217;SDS011;9234;49.344;11.120;2023-08-31T11:00:13;5.28;;;1.98;;
18217;SDS011;9234;49.344;11.120;2023-08-31T11:03:23;3.33;;;1.83;;
18217;SDS011;9234;49.344;11.120;2023-08-31T11:05:53;2.75;;;1.75;;
18217;SDS011;9234;49.344;11.120;2023-08-31T11:08:22;2.00;;;1.45;;
18217;SDS011;9234;49.344;11.120;2023-08-31T11:10:51;3.10;;;1.40;;
18217;SDS011;9234;49.344;11.120;2023-08-31T11:13:19;3.25;;;1.90;;
18217;SDS011;9234;49.344;11.120;2023-08-31T11:15:48;2.17;;;1.70;;
18217;SDS011;9234;49.344;11.120;2023-08-31T11:18:20;3.05;;;1.80;;
18217;SDS011;9234;49.344;11.120;2023-08-31T11:20:48;5.13;;;1.95;;
18217;SDS011;9234;49.344;11.120;2023-08-31T11:23:19;3.83;;;1.85;;
18217;SDS011;9234;49.344;11.120;2023-08-31T11:25:47;3.25;;;1.92;;
18217;SDS011;9234;49.344;11.120;2023-08-31T11:28:17;2.15;;;1.80;;
18217;SDS011;9234;49.344;11.120;2023-08-31T11:30:48;2.85;;;1.85;;
18217;SDS011;9234;49.344;11.120;2023-08-31T11:33:17;3.90;;;2.30;;
18217;SDS011;9234;49.344;11.120;2023-08-31T11:35:45;3.22;;;1.83;;
18217;SDS011;9234;49.344;11.120;2023-08-31T11:38:14;2.28;;;1.33;;
18217;SDS011;9234;49.344;11.120;2023-08-31T11:40:45;2.72;;;2.10;;
18217;SDS011;9234;49.344;11.120;2023-08-31T11:43:16;2.13;;;1.92;;
18217;SDS011;9234;49.344;11.120;2023-08-31T11:45:46;5.13;;;2.15;;
18217;SDS011;9234;49.344;11.120;2023-08-31T11:48:15;3.25;;;1.63;;
18217;SDS011;9234;49.344;11.120;2023-08-31T11:50:43;3.30;;;2.08;;
18217;SDS011;9234;49.344;11.120;2023-08-31T11:53:12;1.90;;;1.65;;
18217;SDS011;9234;49.344;11.120;2023-08-31T11:55:50;3.35;;;1.40;;
18217;SDS011;9234;49.344;11.120;2023-08-31T11:58:20;2.63;;;1.75;;
18217;SDS011;9234;49.344;11.120;2023-08-31T12:00:54;4.93;;;1.80;;
18217;SDS011;9234;49.344;11.120;2023-08-31T12:03:24;3.10;;;1.50;;
18217;SDS011;9234;49.344;11.120;2023-08-31T12:06:05;2.92;;;1.67;;
18217;SDS011;9234;49.344;11.120;2023-08-31T12:08:33;2.97;;;1.77;;
18217;SDS011;9234;49.344;11.120;2023-08-31T12:11:07;3.72;;;1.40;;
18217;SDS011;9234;49.344;11.120;2023-08-31T12:13:36;4.28;;;1.83;;
18217;SDS011;9234;49.344;11.120;2023-08-31T12:16:10;4.28;;;1.75;;
18217;SDS011;9234;49.344;11.120;2023-08-31T12:18:40;3.13;;;1.73;;
18217;SDS011;9234;49.344;11.120;2023-08-31T12:21:08;3.90;;;1.98;;
18217;SDS011;9234;49.344;11.120;2023-08-31T12:23:37;2.63;;;1.60;;
18217;SDS011;9234;49.344;11.120;2023-08-31T12:26:05;4.00;;;1.58;;
18217;SDS011;9234;49.344;11.120;2023-08-31T12:28:35;3.38;;;1.73;;
18217;SDS011;9234;49.344;11.120;2023-08-31T12:31:04;4.47;;;1.58;;
18217;SDS011;9234;49.344;11.120;2023-08-31T12:33:34;3.03;;;1.70;;
18217;SDS011;9234;49.344;11.120;2023-08-31T12:36:03;1.80;;;1.30;;
18217;SDS011;9234;49.344;11.120;2023-08-31T12:38:32;7.28;;;1.90;;
18217;SDS011;9234;49.344;11.120;2023-08-31T12:41:00;3.78;;;1.75;;
18217;SDS011;9234;49.344;11.120;2023-08-31T12:43:29;3.20;;;1.42;;
18217;SDS011;9234;49.344;11.120;2023-08-31T12:45:59;5.15;;;1.60;;
18217;SDS011;9234;49.344;11.120;2023-08-31T12:48:28;1.38;;;1.20;;
18217;SDS011;9234;49.344;11.120;2023-08-31T12:50:57;3.35;;;1.50;;
18217;SDS011;9234;49.344;11.120;2023-08-31T12:53:25;2.60;;;1.35;;
18217;SDS011;9234;49.344;11.120;2023-08-31T12:55:53;3.20;;;1.33;;
18217;SDS011;9234;49.344;11.120;2023-08-31T12:58:22;3.45;;;1.77;;
18217;SDS011;9234;49.344;11.120;2023-08-31T13:00:50;4.00;;;1.65;;
18217;SDS011;9234;49.344;11.120;2023-08-31T13:03:21;2.67;;;1.48;;
18217;SDS011;9234;49.344;11.120;2023-08-31T13:05:49;2.53;;;1.35;;
18217;SDS011;9234;49.344;11.120;2023-08-31T13:08:18;3.45;;;1.40;;
18217;SDS011;9234;49.344;11.120;2023-08-31T13:10:50;2.08;;;1.15;;
18217;SDS011;9234;49.344;11.120;2023-08-31T13:13:20;4.00;;;1.40;;
18217;SDS011;9234;49.344;11.120;2023-08-31T13:15:48;2.10;;;1.13;;
18217;SDS011;9234;49.344;11.120;2023-08-31T13:18:17;3.58;;;1.80;;
18217;SDS011;9234;49.344;11.120;2023-08-31T13:20:51;2.13;;;1.30;;
18217;SDS011;9234;49.344;11.120;2023-08-31T13:23:20;2.63;;;1.52;;
18217;SDS011;9234;49.344;11.120;2023-08-31T13:25:49;4.93;;;1.42;;
18217;SDS011;9234;49.344;11.120;2023-08-31T13:28:18;2.42;;;1.63;;
18217;SDS011;9234;49.344;11.120;2023-08-31T13:30:46;3.05;;;1.48;;
18217;SDS011;9234;49.344;11.120;2023-08-31T13:33:14;1.90;;;1.17;;
18217;SDS011;9234;49.344;11.120;2023-08-31T13:35:44;4.72;;;1.45;;
18217;SDS011;9234;49.344;11.120;2023-08-31T13:38:14;4.72;;;1.55;;
18217;SDS011;9234;49.344;11.120;2023-08-31T13:40:43;4.30;;;1.70;;
18217;SDS011;9234;49.344;11.120;2023-08-31T13:43:11;1.33;;;1.23;;
18217;SDS011;9234;49.344;11.120;2023-08-31T13:45:39;2.92;;;1.35;;
18217;SDS011;9234;49.344;11.120;2023-08-31T13:48:08;4.05;;;1.70;;
18217;SDS011;9234;49.344;11.120;2023-08-31T13:50:37;3.90;;;1.48;;
18217;SDS011;9234;49.344;11.120;2023-08-31T13:53:05;2.40;;;1.50;;
18217;SDS011;9234;49.344;11.120;2023-08-31T13:55:34;4.85;;;1.60;;
18217;SDS011;9234;49.344;11.120;2023-08-31T13:58:03;2.75;;;1.50;;
18217;SDS011;9234;49.344;11.120;2023-08-31T14:00:33;1.98;;;1.30;;
18217;SDS011;9234;49.344;11.120;2023-08-31T14:03:03;2.25;;;1.55;;
18217;SDS011;9234;49.344;11.120;2023-08-31T14:05:32;3.17;;;1.40;;
18217;SDS011;9234;49.344;11.120;2023-08-31T14:08:00;3.30;;;1.40;;
18217;SDS011;9234;49.344;11.120;2023-08-31T14:10:30;4.30;;;1.77;;
18217;SDS011;9234;49.344;11.120;2023-08-31T14:13:00;4.00;;;1.70;;
18217;SDS011;9234;49.344;11.120;2023-08-31T14:15:29;1.92;;;1.40;;
18217;SDS011;9234;49.344;11.120;2023-08-31T14:17:57;2.33;;;1.33;;
18217;SDS011;9234;49.344;11.120;2023-08-31T14:20:26;2.00;;;1.60;;
18217;SDS011;9234;49.344;11.120;2023-08-31T14:22:54;2.97;;;1.55;;
18217;SDS011;9234;49.344;11.120;2023-08-31T14:25:22;1.60;;;1.15;;
18217;SDS011;9234;49.344;11.120;2023-08-31T14:27:52;3.13;;;1.58;;
18217;SDS011;9234;49.344;11.120;2023-08-31T14:30:21;3.03;;;1.90;;
18217;SDS011;9234;49.344;11.120;2023-08-31T14:32:49;5.82;;;1.98;;
18217;SDS011;9234;49.344;11.120;2023-08-31T14:35:18;2.63;;;1.40;;
18217;SDS011;9234;49.344;11.120;2023-08-31T14:37:47;2.92;;;1.50;;
18217;SDS011;9234;49.344;11.120;2023-08-31T14:40:15;2.05;;;1.48;;
18217;SDS011;9234;49.344;11.120;2023-08-31T14:42:43;5.38;;;1.40;;
18217;SDS011;9234;49.344;11.120;2023-08-31T14:45:12;3.17;;;1.90;;
18217;SDS011;9234;49.344;11.120;2023-08-31T14:47:41;2.75;;;1.65;;
18217;SDS011;9234;49.344;11.120;2023-08-31T14:50:10;3.13;;;1.45;;
18217;SDS011;9234;49.344;11.120;2023-08-31T14:52:38;1.83;;;1.50;;
18217;SDS011;9234;49.344;11.120;2023-08-31T14:55:06;4.07;;;1.98;;
18217;SDS011;9234;49.344;11.120;2023-08-31T14:57:35;3.47;;;1.50;;
18217;SDS011;9234;49.344;11.120;2023-08-31T15:00:08;5.53;;;1.50;;
18217;SDS011;9234;49.344;11.120;2023-08-31T15:02:39;2.22;;;1.40;;
18217;SDS011;9234;49.344;11.120;2023-08-31T15:05:09;4.78;;;1.65;;